PWSweather.com
Personal Weather Stations
Station Observations
EDELWEISS
Edelweiss Mazama, Winthrop, WA 98862

Edelweiss MazamaWinthrop, WA 98862

Lat: 48.55444, Lon: -120.33194

Elevation: 2376

Station Type: Davis Vantage Vue

http://www.otwc.net/weather/index.html

Latest ConditionsUpdated 6:05:00 AM PDT Wednesday, Apr 1, 2015
Currently Today's Max Today's Min Today's Average
Temperature 31.2°F-0.4°C 41.7°F5.4°C 31.2°F-0.4°C 36.4°F2.4°C
Dew Point 23.9°F-4.5°C 24.6°F-4.1°C 21.8°F-5.7°C 23.5°F-4.7°C
Winds Calm Calm 3.0 mph NNE4.8 kmh NNE - 0.3 mph 0.5 kmh
Wind Gusts -- 5.0 mph8.0 kmh - -
Humidity 74% 74% 45% 60%
Pressure 30.16 in1021.3 mb 30.16 in1021.3 mb 30.07 in1018.3 mb -
Hour Temp Dew Point Humidity Winds Wind Gusts Pressure Precip Precip Rate Daily Precip Total
06:05 AM 31.2°F-0.4°C 23.9°F-4.5°C 74% Calm Calm -- 30.16 in1021.3 mb 0.00 in0.0 mm 0.00 in0.0 mm 0.00 in0.0 mm
06:00 AM 31.3°F-0.4°C 23.6°F-4.7°C 73% Calm Calm -- 30.16 in1021.3 mb 0.00 in0.0 mm 0.00 in0.0 mm 0.00 in0.0 mm
05:55 AM 31.4°F-0.3°C 23.7°F-4.6°C 73% Calm Calm -- 30.16 in1021.3 mb 0.00 in0.0 mm 0.00 in0.0 mm 0.00 in0.0 mm
05:50 AM 31.6°F-0.2°C 23.6°F-4.7°C 72% Calm Calm -- 30.15 in1021.0 mb 0.00 in0.0 mm 0.00 in0.0 mm 0.00 in0.0 mm
05:45 AM 32.0°F0.0°C 24.0°F-4.4°C 72% Calm Calm -- 30.15 in1021.0 mb 0.00 in0.0 mm 0.00 in0.0 mm 0.00 in0.0 mm
05:40 AM 32.1°F0.1°C 24.1°F-4.4°C 72% Calm Calm -- 30.15 in1021.0 mb 0.00 in0.0 mm 0.00 in0.0 mm 0.00 in0.0 mm
05:35 AM 31.8°F-0.1°C 23.8°F-4.6°C 72% Calm Calm -- 30.15 in1021.0 mb 0.00 in0.0 mm 0.00 in0.0 mm 0.00 in0.0 mm
05:30 AM 31.6°F-0.2°C 23.9°F-4.5°C 73% Calm Calm -- 30.15 in1021.0 mb 0.00 in0.0 mm 0.00 in0.0 mm 0.00 in0.0 mm
05:25 AM 31.6°F-0.2°C 23.6°F-4.7°C 72% Calm Calm -- 30.15 in1021.0 mb 0.00 in0.0 mm 0.00 in0.0 mm 0.00 in0.0 mm
05:20 AM 31.7°F-0.2°C 23.4°F-4.8°C 71% Calm Calm -- 30.15 in1021.0 mb 0.00 in0.0 mm 0.00 in0.0 mm 0.00 in0.0 mm
05:15 AM 31.8°F-0.1°C 23.5°F-4.7°C 71% Calm Calm -- 30.15 in1021.0 mb 0.00 in0.0 mm 0.00 in0.0 mm 0.00 in0.0 mm
05:10 AM 32.2°F0.1°C 23.5°F-4.7°C 70% Calm Calm -- 30.14 in1020.7 mb 0.00 in0.0 mm 0.00 in0.0 mm 0.00 in0.0 mm
05:05 AM 32.6°F0.3°C 23.2°F-4.9°C 68% Calm Calm -- 30.14 in1020.7 mb 0.00 in0.0 mm 0.00 in0.0 mm 0.00 in0.0 mm
05:00 AM 33.2°F0.7°C 23.4°F-4.8°C 67% Calm Calm -- 30.14 in1020.7 mb 0.00 in0.0 mm 0.00 in0.0 mm 0.00 in0.0 mm
04:55 AM 33.6°F0.9°C 23.8°F-4.6°C 67% Calm Calm -- 30.14 in1020.7 mb 0.00 in0.0 mm 0.00 in0.0 mm 0.00 in0.0 mm
04:50 AM 33.8°F1.0°C 24.0°F-4.4°C 67% Calm Calm -- 30.14 in1020.7 mb 0.00 in0.0 mm 0.00 in0.0 mm 0.00 in0.0 mm
04:45 AM 34.1°F1.2°C 24.3°F-4.3°C 67% Calm Calm -- 30.14 in1020.7 mb 0.00 in0.0 mm 0.00 in0.0 mm 0.00 in0.0 mm
04:40 AM 34.4°F1.3°C 24.6°F-4.1°C 67% Calm Calm -- 30.14 in1020.7 mb 0.00 in0.0 mm 0.00 in0.0 mm 0.00 in0.0 mm
04:35 AM 34.3°F1.3°C 24.5°F-4.2°C 67% Calm Calm -- 30.13 in1020.3 mb 0.00 in0.0 mm 0.00 in0.0 mm 0.00 in0.0 mm
04:30 AM 34.3°F1.3°C 24.5°F-4.2°C 67% Calm Calm -- 30.13 in1020.3 mb 0.00 in0.0 mm 0.00 in0.0 mm 0.00 in0.0 mm
04:25 AM 34.4°F1.3°C 24.6°F-4.1°C 67% Calm Calm -- 30.13 in1020.3 mb 0.00 in0.0 mm 0.00 in0.0 mm 0.00 in0.0 mm
04:20 AM 34.4°F1.3°C 24.2°F-4.3°C 66% Calm Calm -- 30.12 in1020.0 mb 0.00 in0.0 mm 0.00 in0.0 mm 0.00 in0.0 mm
04:15 AM 34.5°F1.4°C 23.9°F-4.5°C 65% Calm Calm -- 30.13 in1020.3 mb 0.00 in0.0 mm 0.00 in0.0 mm 0.00 in0.0 mm
04:10 AM 34.9°F1.6°C 24.3°F-4.3°C 65% Calm Calm -- 30.13 in1020.3 mb 0.00 in0.0 mm 0.00 in0.0 mm 0.00 in0.0 mm
04:05 AM 35.2°F1.8°C 24.2°F-4.3°C 64% Calm Calm -- 30.12 in1020.0 mb 0.00 in0.0 mm 0.00 in0.0 mm 0.00 in0.0 mm
04:00 AM 35.3°F1.8°C 24.3°F-4.3°C 64% Calm Calm -- 30.12 in1020.0 mb 0.00 in0.0 mm 0.00 in0.0 mm 0.00 in0.0 mm
03:55 AM 35.4°F1.9°C 24.0°F-4.4°C 63% Calm Calm -- 30.12 in1020.0 mb 0.00 in0.0 mm 0.00 in0.0 mm 0.00 in0.0 mm
03:50 AM 35.5°F1.9°C 24.1°F-4.4°C 63% Calm Calm -- 30.12 in1020.0 mb 0.00 in0.0 mm 0.00 in0.0 mm 0.00 in0.0 mm
03:45 AM 35.7°F2.1°C 24.3°F-4.3°C 63% Calm Calm -- 30.12 in1020.0 mb 0.00 in0.0 mm 0.00 in0.0 mm 0.00 in0.0 mm
03:40 AM 35.6°F2.0°C 23.9°F-4.5°C 62% Calm Calm -- 30.12 in1020.0 mb 0.00 in0.0 mm 0.00 in0.0 mm 0.00 in0.0 mm
03:35 AM 35.6°F2.0°C 23.9°F-4.5°C 62% Calm Calm -- 30.12 in1020.0 mb 0.00 in0.0 mm 0.00 in0.0 mm 0.00 in0.0 mm
03:30 AM 35.6°F2.0°C 24.2°F-4.3°C 63% Calm Calm -- 30.12 in1020.0 mb 0.00 in0.0 mm 0.00 in0.0 mm 0.00 in0.0 mm
03:25 AM 35.6°F2.0°C 23.9°F-4.5°C 62% Calm Calm -- 30.12 in1020.0 mb 0.00 in0.0 mm 0.00 in0.0 mm 0.00 in0.0 mm
03:20 AM 35.7°F2.1°C 23.9°F-4.5°C 62% Calm Calm -- 30.12 in1020.0 mb 0.00 in0.0 mm 0.00 in0.0 mm 0.00 in0.0 mm
03:15 AM 35.9°F2.2°C 24.1°F-4.4°C 62% Calm Calm -- 30.12 in1020.0 mb 0.00 in0.0 mm 0.00 in0.0 mm 0.00 in0.0 mm
03:10 AM 36.1°F2.3°C 24.3°F-4.3°C 62% Calm Calm -- 30.11 in1019.6 mb 0.00 in0.0 mm 0.00 in0.0 mm 0.00 in0.0 mm
03:05 AM 36.3°F2.4°C 24.1°F-4.4°C 61% Calm Calm -- 30.11 in1019.6 mb 0.00 in0.0 mm 0.00 in0.0 mm 0.00 in0.0 mm
03:00 AM 36.4°F2.4°C 24.2°F-4.3°C 61% Calm Calm -- 30.11 in1019.6 mb 0.00 in0.0 mm 0.00 in0.0 mm 0.00 in0.0 mm
02:55 AM 36.4°F2.4°C 23.8°F-4.6°C 60% Calm Calm -- 30.11 in1019.6 mb 0.00 in0.0 mm 0.00 in0.0 mm 0.00 in0.0 mm
02:50 AM 36.5°F2.5°C 23.9°F-4.5°C 60% Calm Calm -- 30.11 in1019.6 mb 0.00 in0.0 mm 0.00 in0.0 mm 0.00 in0.0 mm
02:45 AM 36.7°F2.6°C 24.1°F-4.4°C 60% Calm Calm -- 30.11 in1019.6 mb 0.00 in0.0 mm 0.00 in0.0 mm 0.00 in0.0 mm
02:40 AM 36.7°F2.6°C 23.7°F-4.6°C 59% Calm Calm -- 30.11 in1019.6 mb 0.00 in0.0 mm 0.00 in0.0 mm 0.00 in0.0 mm
02:35 AM 36.8°F2.7°C 23.8°F-4.6°C 59% Calm Calm -- 30.11 in1019.6 mb 0.00 in0.0 mm 0.00 in0.0 mm 0.00 in0.0 mm
02:30 AM 37.0°F2.8°C 23.6°F-4.7°C 58% Calm Calm -- 30.11 in1019.6 mb 0.00 in0.0 mm 0.00 in0.0 mm 0.00 in0.0 mm
02:25 AM 37.0°F2.8°C 23.6°F-4.7°C 58% Calm Calm -- 30.11 in1019.6 mb 0.00 in0.0 mm 0.00 in0.0 mm 0.00 in0.0 mm
02:20 AM 36.9°F2.7°C 23.5°F-4.7°C 58% Calm Calm -- 30.11 in1019.6 mb 0.00 in0.0 mm 0.00 in0.0 mm 0.00 in0.0 mm
02:15 AM 37.1°F2.8°C 23.7°F-4.6°C 58% Calm Calm -- 30.11 in1019.6 mb 0.00 in0.0 mm 0.00 in0.0 mm 0.00 in0.0 mm
02:10 AM 37.2°F2.9°C 23.8°F-4.6°C 58% Calm Calm -- 30.11 in1019.6 mb 0.00 in0.0 mm 0.00 in0.0 mm 0.00 in0.0 mm
02:05 AM 37.2°F2.9°C 23.8°F-4.6°C 58% Calm Calm -- 30.11 in1019.6 mb 0.00 in0.0 mm 0.00 in0.0 mm 0.00 in0.0 mm
02:00 AM 37.4°F3.0°C 23.5°F-4.7°C 57% Calm Calm -- 30.10 in1019.3 mb 0.00 in0.0 mm 0.00 in0.0 mm 0.00 in0.0 mm
01:55 AM 37.6°F3.1°C 23.3°F-4.8°C 56% 1.0 mph 1.6 kmh -- 30.10 in1019.3 mb 0.00 in0.0 mm 0.00 in0.0 mm 0.00 in0.0 mm
01:50 AM 37.8°F3.2°C 23.1°F-4.9°C 55% 1.0 mph ENE1.6 kmh ENE 2.0 mph3.2 kmh 30.10 in1019.3 mb 0.00 in0.0 mm 0.00 in0.0 mm 0.00 in0.0 mm
01:45 AM 38.0°F3.3°C 23.3°F-4.8°C 55% 1.0 mph ENE1.6 kmh ENE 2.0 mph3.2 kmh 30.10 in1019.3 mb 0.00 in0.0 mm 0.00 in0.0 mm 0.00 in0.0 mm
01:40 AM 38.0°F3.3°C 23.3°F-4.8°C 55% Calm Calm 1.0 mph1.6 kmh 30.10 in1019.3 mb 0.00 in0.0 mm 0.00 in0.0 mm 0.00 in0.0 mm
01:35 AM 38.1°F3.4°C 22.9°F-5.1°C 54% Calm Calm 1.0 mph1.6 kmh 30.10 in1019.3 mb 0.00 in0.0 mm 0.00 in0.0 mm 0.00 in0.0 mm
01:30 AM 38.5°F3.6°C 22.8°F-5.1°C 53% Calm Calm 1.0 mph1.6 kmh 30.10 in1019.3 mb 0.00 in0.0 mm 0.00 in0.0 mm 0.00 in0.0 mm
01:25 AM 38.9°F3.8°C 23.2°F-4.9°C 53% Calm Calm -- 30.10 in1019.3 mb 0.00 in0.0 mm 0.00 in0.0 mm 0.00 in0.0 mm
01:20 AM 39.1°F3.9°C 22.9°F-5.1°C 52% Calm Calm -- 30.09 in1019.0 mb 0.00 in0.0 mm 0.00 in0.0 mm 0.00 in0.0 mm
01:15 AM 39.2°F4.0°C 22.6°F-5.2°C 51% Calm Calm 1.0 mph1.6 kmh 30.09 in1019.0 mb 0.00 in0.0 mm 0.00 in0.0 mm 0.00 in0.0 mm
01:10 AM 39.4°F4.1°C 23.2°F-4.9°C 52% Calm Calm 2.0 mph3.2 kmh 30.09 in1019.0 mb 0.00 in0.0 mm 0.00 in0.0 mm 0.00 in0.0 mm
01:05 AM 39.6°F4.2°C 22.9°F-5.1°C 51% Calm Calm 2.0 mph3.2 kmh 30.09 in1019.0 mb 0.00 in0.0 mm 0.00 in0.0 mm 0.00 in0.0 mm
01:00 AM 39.5°F4.2°C 22.4°F-5.3°C 50% Calm Calm 2.0 mph3.2 kmh 30.09 in1019.0 mb 0.00 in0.0 mm 0.00 in0.0 mm 0.00 in0.0 mm
12:55 AM 39.9°F4.4°C 23.2°F-4.9°C 51% Calm Calm 2.0 mph3.2 kmh 30.09 in1019.0 mb 0.00 in0.0 mm 0.00 in0.0 mm 0.00 in0.0 mm
12:50 AM 40.3°F4.6°C 22.6°F-5.2°C 49% Calm Calm 2.0 mph3.2 kmh 30.08 in1018.6 mb 0.00 in0.0 mm 0.00 in0.0 mm 0.00 in0.0 mm
12:45 AM 40.9°F4.9°C 22.7°F-5.2°C 48% Calm Calm 4.0 mph6.4 kmh 30.08 in1018.6 mb 0.00 in0.0 mm 0.00 in0.0 mm 0.00 in0.0 mm
12:40 AM 41.3°F5.2°C 23.1°F-4.9°C 48% 1.0 mph E1.6 kmh E 4.0 mph6.4 kmh 30.08 in1018.6 mb 0.00 in0.0 mm 0.00 in0.0 mm 0.00 in0.0 mm
12:35 AM 41.5°F5.3°C 22.2°F-5.4°C 46% 2.0 mph NNE3.2 kmh NNE 3.0 mph4.8 kmh 30.07 in1018.3 mb 0.00 in0.0 mm 0.00 in0.0 mm 0.00 in0.0 mm
12:30 AM 41.5°F5.3°C 22.2°F-5.4°C 46% 2.0 mph NNE3.2 kmh NNE 5.0 mph8.0 kmh 30.07 in1018.3 mb 0.00 in0.0 mm 0.00 in0.0 mm 0.00 in0.0 mm
12:25 AM 41.5°F5.3°C 22.2°F-5.4°C 46% 2.0 mph NE3.2 kmh NE 5.0 mph8.0 kmh 30.07 in1018.3 mb 0.00 in0.0 mm 0.00 in0.0 mm 0.00 in0.0 mm
12:20 AM 41.5°F5.3°C 22.2°F-5.4°C 46% 2.0 mph NNE3.2 kmh NNE 5.0 mph8.0 kmh 30.07 in1018.3 mb 0.00 in0.0 mm 0.00 in0.0 mm 0.00 in0.0 mm
12:15 AM 41.6°F5.3°C 21.8°F-5.7°C 45% 2.0 mph NNE3.2 kmh NNE 5.0 mph8.0 kmh 30.07 in1018.3 mb 0.00 in0.0 mm 0.00 in0.0 mm 0.00 in0.0 mm
12:10 AM 41.6°F5.3°C 21.8°F-5.7°C 45% 2.0 mph NNE3.2 kmh NNE 4.0 mph6.4 kmh 30.07 in1018.3 mb 0.00 in0.0 mm 0.00 in0.0 mm 0.00 in0.0 mm
12:05 AM 41.6°F5.3°C 21.8°F-5.7°C 45% 2.0 mph NNE3.2 kmh NNE 4.0 mph6.4 kmh 30.07 in1018.3 mb 0.00 in0.0 mm 0.00 in0.0 mm 0.00 in0.0 mm
12:00 AM 41.7°F5.4°C 21.9°F-5.6°C 45% 3.0 mph NNE4.8 kmh NNE 4.0 mph6.4 kmh 30.07 in1018.3 mb 0.00 in0.0 mm 0.00 in0.0 mm 0.00 in0.0 mm